sensor_id;sensor_type;location;lat;lon;timestamp;P1;durP1;ratioP1;P2;durP2;ratioP2
12433;SDS011;6281;49.038;8.372;2022-10-31T00:01:23;5.17;;;4.40;;
12433;SDS011;6281;49.038;8.372;2022-10-31T00:03:52;8.23;;;5.30;;
12433;SDS011;6281;49.038;8.372;2022-10-31T00:06:19;8.27;;;4.50;;
12433;SDS011;6281;49.038;8.372;2022-10-31T00:08:51;7.70;;;4.77;;
12433;SDS011;6281;49.038;8.372;2022-10-31T00:11:19;12.67;;;5.30;;
12433;SDS011;6281;49.038;8.372;2022-10-31T00:13:46;8.70;;;4.77;;
12433;SDS011;6281;49.038;8.372;2022-10-31T00:16:13;9.47;;;5.03;;
12433;SDS011;6281;49.038;8.372;2022-10-31T00:18:41;8.47;;;4.80;;
12433;SDS011;6281;49.038;8.372;2022-10-31T00:21:08;8.47;;;4.53;;
12433;SDS011;6281;49.038;8.372;2022-10-31T00:23:35;7.30;;;4.93;;
12433;SDS011;6281;49.038;8.372;2022-10-31T00:26:03;9.23;;;4.77;;
12433;SDS011;6281;49.038;8.372;2022-10-31T00:28:32;9.53;;;4.90;;
12433;SDS011;6281;49.038;8.372;2022-10-31T00:30:59;8.17;;;4.87;;
12433;SDS011;6281;49.038;8.372;2022-10-31T00:33:26;20.10;;;4.97;;
12433;SDS011;6281;49.038;8.372;2022-10-31T00:35:54;9.27;;;5.50;;
12433;SDS011;6281;49.038;8.372;2022-10-31T00:38:21;8.87;;;4.80;;
12433;SDS011;6281;49.038;8.372;2022-10-31T00:40:48;7.30;;;4.90;;
12433;SDS011;6281;49.038;8.372;2022-10-31T00:43:17;10.33;;;5.57;;
12433;SDS011;6281;49.038;8.372;2022-10-31T00:45:44;7.87;;;5.47;;
12433;SDS011;6281;49.038;8.372;2022-10-31T00:48:11;10.23;;;5.70;;
12433;SDS011;6281;49.038;8.372;2022-10-31T00:53:30;14.97;;;6.80;;
12433;SDS011;6281;49.038;8.372;2022-10-31T00:55:57;16.67;;;6.20;;
12433;SDS011;6281;49.038;8.372;2022-10-31T00:58:25;13.57;;;6.63;;
12433;SDS011;6281;49.038;8.372;2022-10-31T01:00:52;13.17;;;5.80;;
12433;SDS011;6281;49.038;8.372;2022-10-31T01:03:21;7.70;;;4.60;;
12433;SDS011;6281;49.038;8.372;2022-10-31T01:05:55;6.60;;;4.93;;
12433;SDS011;6281;49.038;8.372;2022-10-31T01:08:25;10.80;;;5.67;;
12433;SDS011;6281;49.038;8.372;2022-10-31T01:10:59;9.47;;;5.27;;
12433;SDS011;6281;49.038;8.372;2022-10-31T01:13:29;8.43;;;4.70;;
12433;SDS011;6281;49.038;8.372;2022-10-31T01:15:56;7.20;;;4.53;;
12433;SDS011;6281;49.038;8.372;2022-10-31T01:18:24;11.83;;;4.80;;
12433;SDS011;6281;49.038;8.372;2022-10-31T01:20:59;7.87;;;4.90;;
12433;SDS011;6281;49.038;8.372;2022-10-31T01:23:27;9.57;;;4.60;;
12433;SDS011;6281;49.038;8.372;2022-10-31T01:26:01;7.90;;;4.57;;
12433;SDS011;6281;49.038;8.372;2022-10-31T01:28:31;12.47;;;4.50;;
12433;SDS011;6281;49.038;8.372;2022-10-31T01:31:02;7.57;;;5.53;;
12433;SDS011;6281;49.038;8.372;2022-10-31T01:33:30;7.17;;;5.23;;
12433;SDS011;6281;49.038;8.372;2022-10-31T01:35:57;8.37;;;5.33;;
12433;SDS011;6281;49.038;8.372;2022-10-31T01:38:24;5.93;;;4.83;;
12433;SDS011;6281;49.038;8.372;2022-10-31T01:40:51;9.03;;;4.83;;
12433;SDS011;6281;49.038;8.372;2022-10-31T01:43:18;11.77;;;5.20;;
12433;SDS011;6281;49.038;8.372;2022-10-31T01:45:48;7.70;;;4.90;;
12433;SDS011;6281;49.038;8.372;2022-10-31T01:48:19;8.20;;;4.97;;
12433;SDS011;6281;49.038;8.372;2022-10-31T01:50:50;8.23;;;5.30;;
12433;SDS011;6281;49.038;8.372;2022-10-31T01:53:20;7.40;;;4.33;;
12433;SDS011;6281;49.038;8.372;2022-10-31T01:55:48;11.77;;;5.00;;
12433;SDS011;6281;49.038;8.372;2022-10-31T01:58:16;6.43;;;4.50;;
12433;SDS011;6281;49.038;8.372;2022-10-31T02:00:51;9.93;;;4.77;;
12433;SDS011;6281;49.038;8.372;2022-10-31T02:03:20;7.73;;;4.70;;
12433;SDS011;6281;49.038;8.372;2022-10-31T02:05:48;10.27;;;4.73;;
12433;SDS011;6281;49.038;8.372;2022-10-31T02:08:16;10.00;;;5.27;;
12433;SDS011;6281;49.038;8.372;2022-10-31T02:10:46;8.73;;;4.90;;
12433;SDS011;6281;49.038;8.372;2022-10-31T02:13:13;7.77;;;4.83;;
12433;SDS011;6281;49.038;8.372;2022-10-31T02:15:41;10.53;;;4.77;;
12433;SDS011;6281;49.038;8.372;2022-10-31T02:18:12;10.33;;;5.00;;
12433;SDS011;6281;49.038;8.372;2022-10-31T02:20:41;10.77;;;5.57;;
12433;SDS011;6281;49.038;8.372;2022-10-31T02:23:30;7.57;;;4.70;;
12433;SDS011;6281;49.038;8.372;2022-10-31T02:26:39;7.23;;;4.73;;
12433;SDS011;6281;49.038;8.372;2022-10-31T02:32:24;9.50;;;4.93;;
12433;SDS011;6281;49.038;8.372;2022-10-31T02:34:56;8.43;;;4.30;;
12433;SDS011;6281;49.038;8.372;2022-10-31T02:37:28;6.37;;;4.13;;
12433;SDS011;6281;49.038;8.372;2022-10-31T02:40:04;10.27;;;5.37;;
12433;SDS011;6281;49.038;8.372;2022-10-31T02:42:38;8.00;;;4.93;;
12433;SDS011;6281;49.038;8.372;2022-10-31T02:45:19;10.87;;;5.13;;
12433;SDS011;6281;49.038;8.372;2022-10-31T02:47:53;9.90;;;4.23;;
12433;SDS011;6281;49.038;8.372;2022-10-31T02:50:25;6.73;;;4.17;;
12433;SDS011;6281;49.038;8.372;2022-10-31T02:52:55;6.47;;;4.50;;
12433;SDS011;6281;49.038;8.372;2022-10-31T02:55:42;19.60;;;4.77;;
12433;SDS011;6281;49.038;8.372;2022-10-31T02:58:15;10.00;;;4.60;;
12433;SDS011;6281;49.038;8.372;2022-10-31T03:00:48;7.47;;;4.60;;
12433;SDS011;6281;49.038;8.372;2022-10-31T03:03:29;7.00;;;4.80;;
12433;SDS011;6281;49.038;8.372;2022-10-31T03:06:00;8.97;;;4.07;;
12433;SDS011;6281;49.038;8.372;2022-10-31T03:08:34;9.30;;;4.47;;
12433;SDS011;6281;49.038;8.372;2022-10-31T03:11:03;9.37;;;4.40;;
12433;SDS011;6281;49.038;8.372;2022-10-31T03:13:34;9.37;;;4.43;;
12433;SDS011;6281;49.038;8.372;2022-10-31T03:16:06;5.53;;;4.50;;
12433;SDS011;6281;49.038;8.372;2022-10-31T03:18:40;6.30;;;4.03;;
12433;SDS011;6281;49.038;8.372;2022-10-31T03:21:10;9.43;;;5.07;;
12433;SDS011;6281;49.038;8.372;2022-10-31T03:23:40;9.10;;;4.57;;
12433;SDS011;6281;49.038;8.372;2022-10-31T03:26:10;8.43;;;4.93;;
12433;SDS011;6281;49.038;8.372;2022-10-31T03:28:41;7.70;;;4.93;;
12433;SDS011;6281;49.038;8.372;2022-10-31T03:31:11;6.37;;;4.27;;
12433;SDS011;6281;49.038;8.372;2022-10-31T03:33:44;7.57;;;4.70;;
12433;SDS011;6281;49.038;8.372;2022-10-31T03:36:12;7.93;;;4.40;;
12433;SDS011;6281;49.038;8.372;2022-10-31T03:38:42;7.77;;;4.30;;
12433;SDS011;6281;49.038;8.372;2022-10-31T03:41:13;10.10;;;4.30;;
12433;SDS011;6281;49.038;8.372;2022-10-31T03:43:46;7.20;;;4.97;;
12433;SDS011;6281;49.038;8.372;2022-10-31T03:46:17;7.37;;;4.23;;
12433;SDS011;6281;49.038;8.372;2022-10-31T03:48:46;6.80;;;4.50;;
12433;SDS011;6281;49.038;8.372;2022-10-31T03:51:14;9.63;;;4.60;;
12433;SDS011;6281;49.038;8.372;2022-10-31T03:53:50;6.93;;;4.50;;
12433;SDS011;6281;49.038;8.372;2022-10-31T03:56:21;7.00;;;4.47;;
12433;SDS011;6281;49.038;8.372;2022-10-31T03:58:55;9.00;;;4.90;;
12433;SDS011;6281;49.038;8.372;2022-10-31T04:01:26;10.00;;;4.53;;
12433;SDS011;6281;49.038;8.372;2022-10-31T04:03:58;6.77;;;4.20;;
12433;SDS011;6281;49.038;8.372;2022-10-31T04:06:26;7.60;;;3.80;;
12433;SDS011;6281;49.038;8.372;2022-10-31T04:08:56;7.47;;;4.47;;
12433;SDS011;6281;49.038;8.372;2022-10-31T04:11:27;5.73;;;3.90;;
12433;SDS011;6281;49.038;8.372;2022-10-31T04:13:57;9.20;;;4.20;;
12433;SDS011;6281;49.038;8.372;2022-10-31T04:16:26;6.80;;;4.03;;
12433;SDS011;6281;49.038;8.372;2022-10-31T04:18:53;8.17;;;4.00;;
12433;SDS011;6281;49.038;8.372;2022-10-31T04:21:25;8.63;;;4.47;;
12433;SDS011;6281;49.038;8.372;2022-10-31T04:23:53;7.30;;;3.90;;
12433;SDS011;6281;49.038;8.372;2022-10-31T04:26:20;8.93;;;3.80;;
12433;SDS011;6281;49.038;8.372;2022-10-31T04:28:47;8.50;;;4.00;;
12433;SDS011;6281;49.038;8.372;2022-10-31T04:31:14;6.93;;;3.70;;
12433;SDS011;6281;49.038;8.372;2022-10-31T04:33:41;8.37;;;4.30;;
12433;SDS011;6281;49.038;8.372;2022-10-31T04:36:08;11.50;;;3.87;;
12433;SDS011;6281;49.038;8.372;2022-10-31T04:38:37;7.80;;;3.60;;
12433;SDS011;6281;49.038;8.372;2022-10-31T04:41:04;6.03;;;3.60;;
12433;SDS011;6281;49.038;8.372;2022-10-31T04:43:31;8.03;;;3.60;;
12433;SDS011;6281;49.038;8.372;2022-10-31T04:45:58;6.37;;;3.27;;
12433;SDS011;6281;49.038;8.372;2022-10-31T04:48:25;5.23;;;3.53;;
12433;SDS011;6281;49.038;8.372;2022-10-31T04:50:52;7.70;;;3.87;;
12433;SDS011;6281;49.038;8.372;2022-10-31T04:53:19;5.77;;;3.60;;
12433;SDS011;6281;49.038;8.372;2022-10-31T04:55:47;5.27;;;3.20;;
12433;SDS011;6281;49.038;8.372;2022-10-31T04:58:14;5.63;;;3.57;;
12433;SDS011;6281;49.038;8.372;2022-10-31T05:00:41;4.97;;;3.83;;
12433;SDS011;6281;49.038;8.372;2022-10-31T05:03:08;6.37;;;3.63;;
12433;SDS011;6281;49.038;8.372;2022-10-31T05:05:35;9.57;;;3.90;;
12433;SDS011;6281;49.038;8.372;2022-10-31T05:08:02;8.07;;;3.70;;
12433;SDS011;6281;49.038;8.372;2022-10-31T05:10:29;8.20;;;3.93;;
12433;SDS011;6281;49.038;8.372;2022-10-31T05:12:59;8.80;;;5.10;;
12433;SDS011;6281;49.038;8.372;2022-10-31T05:15:27;6.47;;;4.00;;
12433;SDS011;6281;49.038;8.372;2022-10-31T05:17:54;8.97;;;4.57;;
12433;SDS011;6281;49.038;8.372;2022-10-31T05:20:22;10.60;;;5.10;;
12433;SDS011;6281;49.038;8.372;2022-10-31T05:22:52;7.17;;;5.17;;
12433;SDS011;6281;49.038;8.372;2022-10-31T05:25:20;8.87;;;5.17;;
12433;SDS011;6281;49.038;8.372;2022-10-31T05:27:49;7.50;;;4.63;;
12433;SDS011;6281;49.038;8.372;2022-10-31T05:30:20;8.97;;;4.83;;
12433;SDS011;6281;49.038;8.372;2022-10-31T05:32:49;6.33;;;3.97;;
12433;SDS011;6281;49.038;8.372;2022-10-31T05:35:17;7.07;;;4.47;;
12433;SDS011;6281;49.038;8.372;2022-10-31T05:37:45;6.13;;;4.43;;
12433;SDS011;6281;49.038;8.372;2022-10-31T05:40:12;9.90;;;4.60;;
12433;SDS011;6281;49.038;8.372;2022-10-31T05:42:40;10.40;;;4.50;;
12433;SDS011;6281;49.038;8.372;2022-10-31T05:45:09;9.23;;;4.27;;
12433;SDS011;6281;49.038;8.372;2022-10-31T05:47:39;6.47;;;3.80;;
12433;SDS011;6281;49.038;8.372;2022-10-31T05:50:06;10.27;;;3.57;;
12433;SDS011;6281;49.038;8.372;2022-10-31T05:52:34;8.97;;;4.33;;
12433;SDS011;6281;49.038;8.372;2022-10-31T05:55:01;6.63;;;3.87;;
12433;SDS011;6281;49.038;8.372;2022-10-31T05:57:29;8.90;;;3.90;;
12433;SDS011;6281;49.038;8.372;2022-10-31T05:59:57;6.17;;;3.80;;
12433;SDS011;6281;49.038;8.372;2022-10-31T06:02:24;5.80;;;3.57;;
12433;SDS011;6281;49.038;8.372;2022-10-31T06:04:53;7.67;;;4.27;;
12433;SDS011;6281;49.038;8.372;2022-10-31T06:07:20;5.63;;;4.10;;
12433;SDS011;6281;49.038;8.372;2022-10-31T06:09:47;5.60;;;4.00;;
12433;SDS011;6281;49.038;8.372;2022-10-31T06:12:13;6.77;;;3.73;;
12433;SDS011;6281;49.038;8.372;2022-10-31T06:14:40;8.67;;;4.07;;
12433;SDS011;6281;49.038;8.372;2022-10-31T06:17:07;6.23;;;3.90;;
12433;SDS011;6281;49.038;8.372;2022-10-31T06:19:34;7.17;;;4.00;;
12433;SDS011;6281;49.038;8.372;2022-10-31T06:22:02;7.57;;;3.70;;
12433;SDS011;6281;49.038;8.372;2022-10-31T06:24:29;9.73;;;4.50;;
12433;SDS011;6281;49.038;8.372;2022-10-31T06:26:56;6.13;;;3.67;;
12433;SDS011;6281;49.038;8.372;2022-10-31T06:29:23;6.93;;;3.73;;
12433;SDS011;6281;49.038;8.372;2022-10-31T06:31:50;7.70;;;4.33;;
12433;SDS011;6281;49.038;8.372;2022-10-31T06:34:17;4.80;;;4.13;;
12433;SDS011;6281;49.038;8.372;2022-10-31T06:36:45;4.37;;;3.83;;
12433;SDS011;6281;49.038;8.372;2022-10-31T06:39:14;7.27;;;4.23;;
12433;SDS011;6281;49.038;8.372;2022-10-31T06:41:41;7.90;;;4.10;;
12433;SDS011;6281;49.038;8.372;2022-10-31T06:44:08;5.93;;;3.87;;
12433;SDS011;6281;49.038;8.372;2022-10-31T06:46:35;6.47;;;3.77;;
12433;SDS011;6281;49.038;8.372;2022-10-31T06:49:02;11.70;;;5.13;;
12433;SDS011;6281;49.038;8.372;2022-10-31T06:51:28;10.53;;;5.67;;
12433;SDS011;6281;49.038;8.372;2022-10-31T06:53:55;9.70;;;4.83;;
12433;SDS011;6281;49.038;8.372;2022-10-31T06:56:24;14.03;;;4.73;;
12433;SDS011;6281;49.038;8.372;2022-10-31T06:58:51;10.17;;;4.63;;
12433;SDS011;6281;49.038;8.372;2022-10-31T07:01:18;7.80;;;4.20;;
12433;SDS011;6281;49.038;8.372;2022-10-31T07:03:45;7.73;;;4.63;;
12433;SDS011;6281;49.038;8.372;2022-10-31T07:06:11;12.60;;;4.70;;
12433;SDS011;6281;49.038;8.372;2022-10-31T07:08:38;5.13;;;4.50;;
12433;SDS011;6281;49.038;8.372;2022-10-31T07:11:05;6.73;;;4.50;;
12433;SDS011;6281;49.038;8.372;2022-10-31T07:13:34;8.67;;;4.27;;
12433;SDS011;6281;49.038;8.372;2022-10-31T07:16:01;4.57;;;4.00;;
12433;SDS011;6281;49.038;8.372;2022-10-31T07:18:31;7.20;;;4.83;;
12433;SDS011;6281;49.038;8.372;2022-10-31T07:20:59;7.03;;;4.50;;
12433;SDS011;6281;49.038;8.372;2022-10-31T07:23:25;7.63;;;4.50;;
12433;SDS011;6281;49.038;8.372;2022-10-31T07:25:54;7.80;;;5.10;;
12433;SDS011;6281;49.038;8.372;2022-10-31T07:28:21;6.53;;;4.63;;
12433;SDS011;6281;49.038;8.372;2022-10-31T07:30:50;7.97;;;4.40;;
12433;SDS011;6281;49.038;8.372;2022-10-31T07:33:18;9.67;;;5.13;;
12433;SDS011;6281;49.038;8.372;2022-10-31T07:35:45;6.00;;;4.70;;
12433;SDS011;6281;49.038;8.372;2022-10-31T07:38:12;8.53;;;5.17;;
12433;SDS011;6281;49.038;8.372;2022-10-31T07:40:41;6.83;;;4.90;;
12433;SDS011;6281;49.038;8.372;2022-10-31T07:43:08;7.93;;;5.07;;
12433;SDS011;6281;49.038;8.372;2022-10-31T07:45:36;8.67;;;4.90;;
12433;SDS011;6281;49.038;8.372;2022-10-31T07:48:05;7.43;;;4.70;;
12433;SDS011;6281;49.038;8.372;2022-10-31T07:50:32;6.87;;;5.20;;
12433;SDS011;6281;49.038;8.372;2022-10-31T07:53:00;8.67;;;5.33;;
12433;SDS011;6281;49.038;8.372;2022-10-31T07:55:28;7.57;;;4.73;;
12433;SDS011;6281;49.038;8.372;2022-10-31T07:57:57;9.27;;;4.60;;
12433;SDS011;6281;49.038;8.372;2022-10-31T08:00:25;11.53;;;5.37;;
12433;SDS011;6281;49.038;8.372;2022-10-31T08:02:58;7.90;;;4.97;;
12433;SDS011;6281;49.038;8.372;2022-10-31T08:05:27;5.77;;;4.93;;
12433;SDS011;6281;49.038;8.372;2022-10-31T08:07:54;10.50;;;5.00;;
12433;SDS011;6281;49.038;8.372;2022-10-31T08:10:22;6.60;;;4.93;;
12433;SDS011;6281;49.038;8.372;2022-10-31T08:12:54;5.93;;;4.90;;
12433;SDS011;6281;49.038;8.372;2022-10-31T08:15:22;10.50;;;5.23;;
12433;SDS011;6281;49.038;8.372;2022-10-31T08:17:50;8.83;;;5.40;;
12433;SDS011;6281;49.038;8.372;2022-10-31T08:20:16;10.20;;;5.33;;
12433;SDS011;6281;49.038;8.372;2022-10-31T08:22:53;5.83;;;5.10;;
12433;SDS011;6281;49.038;8.372;2022-10-31T08:25:20;8.77;;;4.53;;
12433;SDS011;6281;49.038;8.372;2022-10-31T08:27:50;10.63;;;4.83;;
12433;SDS011;6281;49.038;8.372;2022-10-31T08:30:17;8.10;;;4.67;;
12433;SDS011;6281;49.038;8.372;2022-10-31T08:32:44;9.73;;;4.53;;
12433;SDS011;6281;49.038;8.372;2022-10-31T08:35:11;8.50;;;4.53;;
12433;SDS011;6281;49.038;8.372;2022-10-31T08:37:38;9.07;;;4.60;;
12433;SDS011;6281;49.038;8.372;2022-10-31T08:40:07;7.23;;;4.37;;
12433;SDS011;6281;49.038;8.372;2022-10-31T08:42:36;4.90;;;3.67;;
12433;SDS011;6281;49.038;8.372;2022-10-31T08:45:03;5.73;;;4.10;;
12433;SDS011;6281;49.038;8.372;2022-10-31T08:47:30;8.03;;;4.20;;
12433;SDS011;6281;49.038;8.372;2022-10-31T08:49:57;7.30;;;3.90;;
12433;SDS011;6281;49.038;8.372;2022-10-31T08:52:24;4.07;;;3.47;;
12433;SDS011;6281;49.038;8.372;2022-10-31T08:54:51;6.43;;;3.90;;
12433;SDS011;6281;49.038;8.372;2022-10-31T08:57:19;7.87;;;4.87;;
12433;SDS011;6281;49.038;8.372;2022-10-31T08:59:46;5.90;;;4.10;;
12433;SDS011;6281;49.038;8.372;2022-10-31T09:02:13;8.17;;;4.00;;
12433;SDS011;6281;49.038;8.372;2022-10-31T09:04:40;7.90;;;4.03;;
12433;SDS011;6281;49.038;8.372;2022-10-31T09:07:07;5.70;;;3.80;;
12433;SDS011;6281;49.038;8.372;2022-10-31T09:09:34;8.13;;;3.73;;
12433;SDS011;6281;49.038;8.372;2022-10-31T09:12:01;6.40;;;3.97;;
12433;SDS011;6281;49.038;8.372;2022-10-31T09:14:29;6.60;;;4.00;;
12433;SDS011;6281;49.038;8.372;2022-10-31T09:16:56;6.50;;;3.77;;
12433;SDS011;6281;49.038;8.372;2022-10-31T09:19:23;5.90;;;4.13;;
12433;SDS011;6281;49.038;8.372;2022-10-31T09:21:51;6.37;;;4.47;;
12433;SDS011;6281;49.038;8.372;2022-10-31T09:24:19;6.67;;;4.07;;
12433;SDS011;6281;49.038;8.372;2022-10-31T09:26:47;4.77;;;3.83;;
12433;SDS011;6281;49.038;8.372;2022-10-31T09:29:14;8.67;;;4.00;;
12433;SDS011;6281;49.038;8.372;2022-10-31T09:31:43;9.00;;;4.00;;
12433;SDS011;6281;49.038;8.372;2022-10-31T09:34:09;6.23;;;4.10;;
12433;SDS011;6281;49.038;8.372;2022-10-31T09:36:37;10.70;;;3.63;;
12433;SDS011;6281;49.038;8.372;2022-10-31T09:39:04;7.77;;;4.10;;
12433;SDS011;6281;49.038;8.372;2022-10-31T09:41:35;8.63;;;4.30;;
12433;SDS011;6281;49.038;8.372;2022-10-31T09:44:21;6.10;;;3.90;;
12433;SDS011;6281;49.038;8.372;2022-10-31T09:46:58;6.20;;;3.50;;
12433;SDS011;6281;49.038;8.372;2022-10-31T09:49:35;6.03;;;4.03;;
12433;SDS011;6281;49.038;8.372;2022-10-31T09:52:16;6.87;;;3.50;;
12433;SDS011;6281;49.038;8.372;2022-10-31T09:54:48;8.67;;;3.30;;
12433;SDS011;6281;49.038;8.372;2022-10-31T09:57:19;7.10;;;3.83;;
12433;SDS011;6281;49.038;8.372;2022-10-31T09:59:51;6.43;;;3.57;;
12433;SDS011;6281;49.038;8.372;2022-10-31T10:02:21;8.00;;;3.70;;
12433;SDS011;6281;49.038;8.372;2022-10-31T10:04:54;7.20;;;3.43;;
12433;SDS011;6281;49.038;8.372;2022-10-31T10:07:25;7.53;;;3.50;;
12433;SDS011;6281;49.038;8.372;2022-10-31T10:10:12;5.43;;;3.47;;
12433;SDS011;6281;49.038;8.372;2022-10-31T10:12:48;7.53;;;3.63;;
12433;SDS011;6281;49.038;8.372;2022-10-31T10:15:33;9.03;;;3.70;;
12433;SDS011;6281;49.038;8.372;2022-10-31T10:18:14;8.70;;;3.90;;
12433;SDS011;6281;49.038;8.372;2022-10-31T10:20:51;7.10;;;3.87;;
12433;SDS011;6281;49.038;8.372;2022-10-31T10:23:40;5.50;;;3.80;;
12433;SDS011;6281;49.038;8.372;2022-10-31T10:26:17;6.37;;;3.77;;
12433;SDS011;6281;49.038;8.372;2022-10-31T10:28:46;8.53;;;3.90;;
12433;SDS011;6281;49.038;8.372;2022-10-31T10:31:16;8.07;;;3.67;;
12433;SDS011;6281;49.038;8.372;2022-10-31T10:33:50;6.30;;;3.23;;
12433;SDS011;6281;49.038;8.372;2022-10-31T10:36:26;8.30;;;3.70;;
12433;SDS011;6281;49.038;8.372;2022-10-31T10:39:00;6.30;;;3.83;;
12433;SDS011;6281;49.038;8.372;2022-10-31T10:41:31;6.33;;;3.70;;
12433;SDS011;6281;49.038;8.372;2022-10-31T10:43:59;7.17;;;4.23;;
12433;SDS011;6281;49.038;8.372;2022-10-31T10:46:26;7.03;;;4.20;;
12433;SDS011;6281;49.038;8.372;2022-10-31T10:49:20;10.63;;;4.43;;
12433;SDS011;6281;49.038;8.372;2022-10-31T10:51:52;8.33;;;3.90;;
12433;SDS011;6281;49.038;8.372;2022-10-31T10:57:21;6.90;;;3.53;;
12433;SDS011;6281;49.038;8.372;2022-10-31T10:59:54;9.60;;;4.40;;
12433;SDS011;6281;49.038;8.372;2022-10-31T11:02:22;8.60;;;4.23;;
12433;SDS011;6281;49.038;8.372;2022-10-31T11:04:52;8.37;;;4.10;;
12433;SDS011;6281;49.038;8.372;2022-10-31T11:07:21;9.27;;;4.30;;
12433;SDS011;6281;49.038;8.372;2022-10-31T11:09:48;7.00;;;4.20;;
12433;SDS011;6281;49.038;8.372;2022-10-31T11:12:19;5.47;;;4.10;;
12433;SDS011;6281;49.038;8.372;2022-10-31T11:14:50;5.87;;;4.33;;
12433;SDS011;6281;49.038;8.372;2022-10-31T11:17:24;6.67;;;3.77;;
12433;SDS011;6281;49.038;8.372;2022-10-31T11:20:20;7.33;;;4.10;;
12433;SDS011;6281;49.038;8.372;2022-10-31T11:23:00;8.90;;;4.40;;
12433;SDS011;6281;49.038;8.372;2022-10-31T11:25:30;6.63;;;4.27;;
12433;SDS011;6281;49.038;8.372;2022-10-31T11:28:00;6.13;;;4.30;;
12433;SDS011;6281;49.038;8.372;2022-10-31T11:30:28;6.03;;;4.00;;
12433;SDS011;6281;49.038;8.372;2022-10-31T11:32:56;7.40;;;4.30;;
12433;SDS011;6281;49.038;8.372;2022-10-31T11:35:25;8.37;;;4.70;;
12433;SDS011;6281;49.038;8.372;2022-10-31T11:37:54;5.73;;;4.27;;
12433;SDS011;6281;49.038;8.372;2022-10-31T11:40:25;7.03;;;4.20;;
12433;SDS011;6281;49.038;8.372;2022-10-31T11:42:54;8.10;;;4.53;;
12433;SDS011;6281;49.038;8.372;2022-10-31T11:45:32;10.07;;;5.67;;
12433;SDS011;6281;49.038;8.372;2022-10-31T11:48:02;6.53;;;4.10;;
12433;SDS011;6281;49.038;8.372;2022-10-31T11:50:41;7.50;;;4.53;;
12433;SDS011;6281;49.038;8.372;2022-10-31T11:53:14;5.07;;;4.20;;
12433;SDS011;6281;49.038;8.372;2022-10-31T11:55:42;8.47;;;4.63;;
12433;SDS011;6281;49.038;8.372;2022-10-31T11:58:21;7.83;;;4.33;;
12433;SDS011;6281;49.038;8.372;2022-10-31T12:00:50;6.70;;;4.13;;
12433;SDS011;6281;49.038;8.372;2022-10-31T12:03:25;6.83;;;4.27;;
12433;SDS011;6281;49.038;8.372;2022-10-31T12:06:02;8.63;;;4.40;;
12433;SDS011;6281;49.038;8.372;2022-10-31T12:08:32;6.77;;;4.30;;
12433;SDS011;6281;49.038;8.372;2022-10-31T12:11:04;10.03;;;4.93;;
12433;SDS011;6281;49.038;8.372;2022-10-31T12:13:39;8.23;;;4.60;;
12433;SDS011;6281;49.038;8.372;2022-10-31T12:16:16;7.83;;;4.03;;
12433;SDS011;6281;49.038;8.372;2022-10-31T12:18:52;8.33;;;3.83;;
12433;SDS011;6281;49.038;8.372;2022-10-31T12:21:30;6.60;;;4.47;;
12433;SDS011;6281;49.038;8.372;2022-10-31T12:24:08;8.50;;;4.17;;
12433;SDS011;6281;49.038;8.372;2022-10-31T12:26:46;7.00;;;4.23;;
12433;SDS011;6281;49.038;8.372;2022-10-31T12:29:30;6.13;;;4.43;;
12433;SDS011;6281;49.038;8.372;2022-10-31T12:32:20;6.10;;;4.10;;
12433;SDS011;6281;49.038;8.372;2022-10-31T12:34:59;8.77;;;4.53;;
12433;SDS011;6281;49.038;8.372;2022-10-31T12:37:50;4.83;;;4.30;;
12433;SDS011;6281;49.038;8.372;2022-10-31T12:40:31;7.33;;;4.23;;
12433;SDS011;6281;49.038;8.372;2022-10-31T12:43:15;8.53;;;4.13;;
12433;SDS011;6281;49.038;8.372;2022-10-31T12:45:54;6.60;;;4.13;;
12433;SDS011;6281;49.038;8.372;2022-10-31T12:48:30;9.93;;;4.13;;
12433;SDS011;6281;49.038;8.372;2022-10-31T12:51:18;8.50;;;3.57;;
12433;SDS011;6281;49.038;8.372;2022-10-31T12:54:03;4.87;;;3.67;;
12433;SDS011;6281;49.038;8.372;2022-10-31T12:56:41;5.20;;;3.50;;
12433;SDS011;6281;49.038;8.372;2022-10-31T12:59:15;6.80;;;3.90;;
12433;SDS011;6281;49.038;8.372;2022-10-31T13:01:48;6.10;;;3.63;;
12433;SDS011;6281;49.038;8.372;2022-10-31T13:04:21;6.83;;;3.60;;
12433;SDS011;6281;49.038;8.372;2022-10-31T13:06:55;7.43;;;3.80;;
12433;SDS011;6281;49.038;8.372;2022-10-31T13:09:28;6.97;;;3.33;;
12433;SDS011;6281;49.038;8.372;2022-10-31T13:12:04;10.10;;;4.30;;
12433;SDS011;6281;49.038;8.372;2022-10-31T13:14:36;7.23;;;3.93;;
12433;SDS011;6281;49.038;8.372;2022-10-31T13:17:06;9.47;;;4.33;;
12433;SDS011;6281;49.038;8.372;2022-10-31T13:19:44;8.63;;;3.70;;
12433;SDS011;6281;49.038;8.372;2022-10-31T13:22:13;8.13;;;4.03;;
12433;SDS011;6281;49.038;8.372;2022-10-31T13:24:47;6.83;;;4.20;;
12433;SDS011;6281;49.038;8.372;2022-10-31T13:27:21;8.97;;;3.73;;
12433;SDS011;6281;49.038;8.372;2022-10-31T13:29:55;6.27;;;4.00;;
12433;SDS011;6281;49.038;8.372;2022-10-31T13:32:28;8.77;;;3.97;;
12433;SDS011;6281;49.038;8.372;2022-10-31T13:35:04;8.97;;;4.07;;
12433;SDS011;6281;49.038;8.372;2022-10-31T13:37:36;9.43;;;3.87;;
12433;SDS011;6281;49.038;8.372;2022-10-31T13:40:12;7.27;;;4.33;;
12433;SDS011;6281;49.038;8.372;2022-10-31T13:42:50;7.73;;;4.40;;
12433;SDS011;6281;49.038;8.372;2022-10-31T13:45:22;14.73;;;3.90;;
12433;SDS011;6281;49.038;8.372;2022-10-31T13:47:57;5.63;;;3.60;;
12433;SDS011;6281;49.038;8.372;2022-10-31T13:50:26;9.03;;;4.30;;
12433;SDS011;6281;49.038;8.372;2022-10-31T13:53:03;10.20;;;4.33;;
12433;SDS011;6281;49.038;8.372;2022-10-31T13:55:40;7.03;;;4.30;;
12433;SDS011;6281;49.038;8.372;2022-10-31T14:01:01;7.97;;;4.00;;
12433;SDS011;6281;49.038;8.372;2022-10-31T14:03:42;8.10;;;4.00;;
12433;SDS011;6281;49.038;8.372;2022-10-31T14:06:11;7.13;;;4.67;;
12433;SDS011;6281;49.038;8.372;2022-10-31T14:08:40;7.13;;;4.43;;
12433;SDS011;6281;49.038;8.372;2022-10-31T14:11:19;9.00;;;5.20;;
12433;SDS011;6281;49.038;8.372;2022-10-31T14:13:49;8.73;;;4.03;;
12433;SDS011;6281;49.038;8.372;2022-10-31T14:16:18;9.87;;;4.17;;
12433;SDS011;6281;49.038;8.372;2022-10-31T14:18:47;9.63;;;4.90;;
12433;SDS011;6281;49.038;8.372;2022-10-31T14:21:25;9.20;;;4.77;;
12433;SDS011;6281;49.038;8.372;2022-10-31T14:23:54;7.07;;;4.97;;
12433;SDS011;6281;49.038;8.372;2022-10-31T14:26:35;6.83;;;4.97;;
12433;SDS011;6281;49.038;8.372;2022-10-31T14:31:53;10.70;;;4.83;;
12433;SDS011;6281;49.038;8.372;2022-10-31T14:34:23;10.73;;;5.53;;
12433;SDS011;6281;49.038;8.372;2022-10-31T14:37:01;182.87;;;98.53;;
12433;SDS011;6281;49.038;8.372;2022-10-31T14:39:45;20.17;;;11.70;;
12433;SDS011;6281;49.038;8.372;2022-10-31T14:42:26;132.57;;;75.67;;
12433;SDS011;6281;49.038;8.372;2022-10-31T14:45:05;118.77;;;65.67;;
12433;SDS011;6281;49.038;8.372;2022-10-31T14:47:45;251.00;;;139.80;;
12433;SDS011;6281;49.038;8.372;2022-10-31T14:50:21;97.53;;;57.37;;
12433;SDS011;6281;49.038;8.372;2022-10-31T14:52:55;130.33;;;77.90;;
12433;SDS011;6281;49.038;8.372;2022-10-31T14:55:26;107.03;;;59.47;;
12433;SDS011;6281;49.038;8.372;2022-10-31T14:57:55;36.03;;;20.60;;
12433;SDS011;6281;49.038;8.372;2022-10-31T15:00:25;30.63;;;16.20;;
12433;SDS011;6281;49.038;8.372;2022-10-31T15:02:59;17.60;;;11.20;;
12433;SDS011;6281;49.038;8.372;2022-10-31T15:05:40;19.67;;;12.57;;
12433;SDS011;6281;49.038;8.372;2022-10-31T15:08:12;22.87;;;9.33;;
12433;SDS011;6281;49.038;8.372;2022-10-31T15:10:52;11.90;;;8.40;;
12433;SDS011;6281;49.038;8.372;2022-10-31T15:13:20;12.23;;;7.60;;
12433;SDS011;6281;49.038;8.372;2022-10-31T15:15:48;9.43;;;5.17;;
12433;SDS011;6281;49.038;8.372;2022-10-31T15:18:18;10.23;;;5.50;;
12433;SDS011;6281;49.038;8.372;2022-10-31T15:20:48;10.43;;;5.30;;
12433;SDS011;6281;49.038;8.372;2022-10-31T15:23:16;8.97;;;6.03;;
12433;SDS011;6281;49.038;8.372;2022-10-31T15:25:47;16.03;;;8.97;;
12433;SDS011;6281;49.038;8.372;2022-10-31T15:28:14;9.60;;;5.87;;
12433;SDS011;6281;49.038;8.372;2022-10-31T15:30:50;9.57;;;4.57;;
12433;SDS011;6281;49.038;8.372;2022-10-31T15:33:19;9.70;;;4.90;;
12433;SDS011;6281;49.038;8.372;2022-10-31T15:35:54;6.37;;;4.10;;